Time;durP1;ratioP1;P1;durP2;ratioP2;P2;SDS_P1;SDS_P2;PMS_P1;PMS_P2;Temp;Humidity;BMP_temperature;BMP_pressure;BME280_temperature;BME280_humidity;BME280_pressure;Samples;Min_cycle;Max_cycle;Signal;HPM_P1;HPM_P2
2023/03/09 00:00:31;;;;;;;33.88;5.35;;;11.50;99.90;;;10.70;100.00;99527.53;4153287;28;20156;-77
2023/03/09 00:02:31;;;;;;;42.50;6.60;;;11.50;99.90;;;10.73;100.00;99531.59;4153526;28;20030;-77
2023/03/09 00:04:32;;;;;;;30.42;6.60;;;11.50;99.90;;;10.61;100.00;99520.72;4154039;28;20029;-77
2023/03/09 00:06:33;;;;;;;29.95;6.07;;;11.50;99.90;;;10.70;100.00;99537.25;4154917;28;20108;-77
2023/03/09 00:08:34;;;;;;;31.92;6.50;;;11.50;99.90;;;10.60;100.00;99521.75;4153111;28;20030;-77
2023/03/09 00:10:40;;;;;;;44.60;7.10;;;11.50;99.90;;;10.57;100.00;99524.75;4169807;28;20059;-77
2023/03/09 00:12:41;;;;;;;35.20;6.28;;;11.50;99.90;;;10.65;100.00;99543.09;4136910;28;20115;-77
2023/03/09 00:14:42;;;;;;;39.88;6.10;;;11.50;99.90;;;10.72;100.00;99541.34;4169606;28;20025;-77
2023/03/09 00:16:44;;;;;;;25.85;6.15;;;11.50;99.90;;;10.74;100.00;99542.00;4152992;28;20104;-77
2023/03/09 00:18:44;;;;;;;37.90;5.63;;;11.50;99.90;;;10.68;100.00;99534.81;4147403;28;20041;-77
2023/03/09 00:20:46;;;;;;;44.72;7.40;;;11.50;99.90;;;10.71;100.00;99541.53;4153216;28;20576;-77
2023/03/09 00:22:50;;;;;;;33.83;5.60;;;11.50;99.90;;;10.65;100.00;99531.72;4150899;28;20026;-77
2023/03/09 00:24:55;;;;;;;31.25;6.00;;;11.50;99.90;;;10.66;100.00;99559.75;4153141;28;20025;-77
2023/03/09 00:27:00;;;;;;;42.45;6.88;;;11.50;99.90;;;10.68;100.00;99557.72;4152530;28;20030;-77
2023/03/09 00:29:01;;;;;;;39.33;6.38;;;11.50;99.90;;;10.61;100.00;99544.47;4147424;28;20535;-77
2023/03/09 00:31:05;;;;;;;34.55;6.50;;;11.50;99.90;;;10.60;100.00;99553.41;4150255;28;20089;-77
2023/03/09 00:33:06;;;;;;;43.58;6.60;;;11.40;99.90;;;10.60;100.00;99550.75;4141154;28;20028;-77
2023/03/09 00:35:08;;;;;;;34.90;6.22;;;11.40;99.90;;;10.62;100.00;99561.94;4144569;28;20029;-77
2023/03/09 00:37:09;;;;;;;42.15;7.00;;;11.40;99.90;;;10.71;100.00;99550.28;4133543;28;20529;-77
2023/03/09 00:39:13;;;;;;;43.33;7.00;;;11.50;99.90;;;10.83;100.00;99566.44;4151569;28;20030;-77
2023/03/09 00:41:14;;;;;;;;;;;11.50;99.90;;;10.69;100.00;99570.75;4169802;28;20080;-77
2023/03/09 00:43:15;;;;;;;32.58;8.07;;;11.50;99.90;;;10.60;100.00;99553.41;4152996;28;19909;-77
2023/03/09 00:45:16;;;;;;;44.80;8.15;;;11.50;99.90;;;10.69;100.00;99570.75;4152626;28;20045;-77
2023/03/09 00:47:18;;;;;;;43.50;7.03;;;11.50;99.90;;;10.74;100.00;99557.81;4154008;28;20440;-77
2023/03/09 00:49:19;;;;;;;42.65;9.10;;;11.50;99.90;;;10.67;100.00;99570.09;4152945;28;20026;-77
2023/03/09 00:51:20;;;;;;;46.35;6.00;;;11.50;99.90;;;10.81;100.00;99585.06;4152196;28;20404;-77
2023/03/09 00:53:21;;;;;;;39.38;8.05;;;11.50;99.90;;;10.75;100.00;99583.16;4141962;28;20130;-77
2023/03/09 00:55:22;;;;;;;43.72;8.70;;;11.50;99.90;;;10.70;100.00;99580.28;4150561;28;20085;-77
2023/03/09 00:57:25;;;;;;;41.15;8.57;;;11.60;99.90;;;10.69;100.00;99578.66;4147119;28;20498;-77
2023/03/09 00:59:25;;;;;;;58.25;7.47;;;11.60;99.90;;;10.82;100.00;99588.53;4152643;28;20026;-77
2023/03/09 01:01:27;;;;;;;33.53;7.10;;;11.60;99.90;;;10.79;100.00;99594.16;4152365;28;20022;-77
2023/03/09 01:03:27;;;;;;;41.90;7.13;;;11.60;99.90;;;10.73;100.00;99590.47;4152621;28;20375;-77
2023/03/09 01:05:28;;;;;;;41.00;7.28;;;11.60;99.90;;;10.77;100.00;99601.47;4152787;28;20037;-77
2023/03/09 01:07:31;;;;;;;52.95;10.55;;;11.60;99.90;;;10.82;100.00;99599.06;4149378;28;20457;-77
2023/03/09 01:09:32;;;;;;;49.47;7.82;;;11.60;99.90;;;10.79;100.00;99605.53;4153838;28;20103;-77
2023/03/09 01:11:33;;;;;;;44.35;7.40;;;11.60;99.90;;;10.85;100.00;99609.25;4152436;28;20042;-78
2023/03/09 01:13:35;;;;;;;56.58;8.85;;;11.60;99.90;;;10.81;100.00;99613.28;4152441;28;20140;-77
2023/03/09 01:15:36;;;;;;;45.47;6.85;;;11.60;99.90;;;10.76;100.00;99616.47;4153583;28;20112;-77
2023/03/09 01:17:38;;;;;;;50.50;7.97;;;11.60;99.90;;;10.84;100.00;99629.53;4136052;28;20023;-77
2023/03/09 01:19:38;;;;;;;57.97;9.60;;;11.60;99.90;;;10.85;100.00;99615.34;4152230;28;20485;-77
2023/03/09 01:21:39;;;;;;;42.58;8.57;;;11.60;99.90;;;10.77;100.00;99620.75;4152599;28;20053;-77
2023/03/09 01:23:40;;;;;;;38.95;8.52;;;11.60;99.90;;;10.81;100.00;99614.09;4152279;28;20117;-77
2023/03/09 01:25:41;;;;;;;46.22;8.45;;;11.60;99.90;;;10.67;100.00;99606.19;4153654;28;20485;-77
2023/03/09 01:27:42;;;;;;;46.70;7.40;;;11.60;99.90;;;10.80;100.00;99627.47;4123303;28;20113;-77
2023/03/09 01:29:43;;;;;;;51.20;9.13;;;11.60;99.90;;;10.77;100.00;99622.56;4152956;28;20021;-77
2023/03/09 01:31:44;;;;;;;54.70;8.60;;;11.60;99.90;;;10.75;100.00;99630.66;4135381;28;20041;-77
2023/03/09 01:33:48;;;;;;;44.78;8.95;;;11.60;99.90;;;10.75;100.00;99624.56;4152175;28;20034;-77
2023/03/09 01:35:49;;;;;;;43.97;7.93;;;11.60;99.90;;;10.74;100.00;99629.03;4132640;28;20069;-77
2023/03/09 01:37:50;;;;;;;35.13;6.60;;;11.60;99.90;;;10.69;100.00;99620.03;4168274;28;20111;-77
2023/03/09 01:39:51;;;;;;;47.67;9.68;;;11.50;99.90;;;10.73;100.00;99626.56;4152165;28;20145;-77
2023/03/09 01:41:52;;;;;;;50.67;8.57;;;11.60;99.90;;;10.85;100.00;99620.63;4153378;28;20029;-77
2023/03/09 01:43:53;;;;;;;52.40;9.50;;;11.60;99.90;;;10.82;100.00;99634.19;4152279;28;20026;-77
2023/03/09 01:46:24;;;;;;;51.47;10.57;;;11.60;99.90;;;10.91;100.00;99633.09;4151915;28;20101;-77
2023/03/09 01:48:25;;;;;;;39.40;8.55;;;11.60;99.90;;;10.81;100.00;99627.28;4147321;28;20084;-77
2023/03/09 01:50:34;;;;;;;44.55;8.10;;;11.60;99.90;;;10.81;100.00;99640.47;4151821;28;20025;-77
2023/03/09 01:52:36;;;;;;;51.63;7.40;;;11.60;99.90;;;10.76;100.00;99634.94;4168113;28;20037;-77
2023/03/09 01:55:10;;;;;;;43.70;8.38;;;11.60;99.90;;;10.71;100.00;99613.56;4151820;28;20028;-77
2023/03/09 01:57:32;;;;;;;34.28;7.70;;;11.60;99.90;;;10.75;100.00;99630.66;4150938;28;20026;-77
2023/03/09 01:59:34;;;;;;;50.85;8.57;;;11.50;99.90;;;10.77;100.00;99627.84;4137696;28;20518;-77
2023/03/09 02:01:36;;;;;;;48.30;8.50;;;11.60;99.90;;;10.84;100.00;99632.19;4167878;28;20104;-77
2023/03/09 02:03:44;;;;;;;36.70;7.82;;;11.50;99.90;;;10.77;100.00;99626.03;4152865;28;20440;-77
2023/03/09 02:05:57;;;;;;;48.83;9.90;;;11.60;99.90;;;10.72;100.00;99617.81;4135597;28;20473;-77
2023/03/09 02:07:59;;;;;;;48.47;8.02;;;11.60;99.90;;;10.79;100.00;99621.38;4164328;28;20026;-77
2023/03/09 02:10:32;;;;;;;48.92;7.18;;;11.60;99.90;;;10.66;100.00;99610.69;4151629;28;20038;-77
2023/03/09 02:12:34;;;;;;;50.60;6.90;;;11.60;99.90;;;10.91;100.00;99621.72;4135582;28;20084;-77
2023/03/09 02:14:36;;;;;;;49.60;8.27;;;11.60;99.90;;;10.85;100.00;99620.63;4152791;28;20520;-77
2023/03/09 02:16:36;;;;;;;47.15;8.48;;;11.70;99.90;;;10.86;100.00;99614.38;4132885;28;20033;-77
2023/03/09 02:18:38;;;;;;;44.65;8.98;;;11.70;99.90;;;10.85;100.00;99615.34;4142038;28;20026;-77
2023/03/09 02:21:15;;;;;;;48.47;10.15;;;11.70;99.90;;;10.90;100.00;99622.72;4152209;28;20096;-77
2023/03/09 02:23:54;;;;;;;53.80;8.80;;;11.70;99.90;;;10.84;100.00;99618.19;4152861;28;20029;-77
2023/03/09 02:26:35;;;;;;;43.03;9.40;;;11.70;99.90;;;10.84;100.00;99640.09;4151633;28;20089;-77
2023/03/09 02:28:36;;;;;;;48.03;7.18;;;11.70;99.90;;;10.81;100.00;99623.84;4126687;28;20046;-77
2023/03/09 02:30:42;;;;;;;51.70;8.02;;;11.70;99.90;;;10.78;100.00;99611.81;4129287;28;20030;-77
2023/03/09 02:32:43;;;;;;;52.63;10.43;;;11.60;99.90;;;10.91;100.00;99619.91;4149991;28;20021;-77
2023/03/09 02:34:44;;;;;;;57.55;9.43;;;11.70;99.90;;;10.96;100.00;99614.88;4139791;28;20038;-77
2023/03/09 02:36:45;;;;;;;51.17;8.77;;;11.70;99.90;;;10.91;100.00;99625.16;4131172;28;20100;-77
2023/03/09 02:38:47;;;;;;;49.95;8.23;;;11.70;99.90;;;10.93;100.00;99617.09;4145891;28;20065;-77
2023/03/09 02:40:49;;;;;;;39.97;7.72;;;11.70;99.90;;;10.89;100.00;99624.56;4167844;28;20021;-77
2023/03/09 02:42:51;;;;;;;45.92;10.55;;;11.70;99.90;;;10.87;100.00;99629.16;4151304;28;20030;-77
2023/03/09 02:44:52;;;;;;;48.83;7.32;;;11.70;99.90;;;10.78;100.00;99622.38;4151204;28;20498;-77
2023/03/09 02:46:53;;;;;;;51.28;8.40;;;11.60;99.90;;;10.83;100.00;99625.28;4129135;28;20069;-77
2023/03/09 02:48:55;;;;;;;54.15;10.00;;;11.60;99.90;;;10.73;100.00;99606.28;4148754;28;20022;-77
2023/03/09 02:50:56;;;;;;;64.82;11.85;;;11.60;99.90;;;10.67;100.00;99607.03;4151380;28;20058;-77
2023/03/09 02:52:57;;;;;;;47.30;10.25;;;11.60;99.90;;;10.69;100.00;99615.59;4144856;28;20100;-77
2023/03/09 02:54:57;;;;;;;51.15;8.63;;;11.60;99.90;;;10.80;100.00;99622.19;4145884;28;20029;-77
2023/03/09 02:56:58;;;;;;;51.45;10.23;;;11.60;99.90;;;10.77;100.00;99626.03;4153419;28;20025;-77
2023/03/09 02:59:02;;;;;;;44.30;8.18;;;11.60;99.90;;;10.76;100.00;99621.75;4131409;28;20113;-77
2023/03/09 03:01:03;;;;;;;52.05;8.32;;;11.50;99.90;;;10.71;100.00;99634.66;4143593;28;20500;-77
2023/03/09 03:03:04;;;;;;;50.15;9.68;;;11.50;99.90;;;10.66;100.00;99628.31;4152276;28;20113;-77
2023/03/09 03:05:07;;;;;;;53.60;9.23;;;11.50;99.90;;;10.69;100.00;99617.41;4135067;28;20042;-77
2023/03/09 03:07:07;;;;;;;53.55;9.57;;;11.50;99.90;;;10.79;100.00;99626.66;4152145;28;20452;-77
2023/03/09 03:09:08;;;;;;;53.65;9.35;;;11.50;99.90;;;10.78;100.00;99634.75;4150969;28;20022;-77
2023/03/09 03:11:09;;;;;;;55.05;9.55;;;11.60;99.90;;;10.78;100.00;99626.84;4152231;28;20030;-77
2023/03/09 03:13:10;;;;;;;49.38;10.27;;;11.60;99.90;;;10.68;100.00;99624.50;4151981;28;20062;-77
2023/03/09 03:15:11;;;;;;;60.30;9.27;;;11.50;99.90;;;10.77;100.00;99631.31;4150723;28;20044;-77
2023/03/09 03:17:12;;;;;;;49.15;9.18;;;11.50;99.90;;;10.73;100.00;99626.56;4134720;28;20034;-77
2023/03/09 03:19:13;;;;;;;50.03;9.40;;;11.50;99.90;;;10.76;100.00;99629.66;4146361;28;20022;-77
2023/03/09 03:21:14;;;;;;;54.42;11.02;;;11.50;99.90;;;10.79;100.00;99631.09;4167312;28;20501;-78
2023/03/09 03:23:15;;;;;;;51.67;9.90;;;11.50;99.90;;;10.77;100.00;99626.03;4152171;28;20030;-78
2023/03/09 03:25:16;;;;;;;60.67;8.73;;;11.50;99.90;;;10.76;100.00;99629.66;4150946;28;20476;-77
2023/03/09 03:27:18;;;;;;;56.70;9.35;;;11.50;99.90;;;10.75;100.00;99621.94;4127000;28;20090;-78
2023/03/09 03:29:19;;;;;;;59.90;8.95;;;11.60;99.90;;;10.77;100.00;99631.31;4147918;28;20030;-78
2023/03/09 03:31:20;;;;;;;44.72;7.80;;;11.50;99.90;;;10.69;100.00;99620.88;4139431;28;20148;-77
2023/03/09 03:33:21;;;;;;;49.10;9.43;;;11.60;99.90;;;10.73;100.00;99624.75;4150879;28;20104;-77
2023/03/09 03:35:22;;;;;;;60.10;10.35;;;11.50;99.90;;;10.70;100.00;99617.19;4167339;28;20032;-77
2023/03/09 03:37:23;;;;;;;45.85;9.48;;;11.50;99.90;;;10.66;100.00;99623.88;4142493;28;20026;-77
2023/03/09 03:39:24;;;;;;;58.22;8.23;;;11.50;99.90;;;10.60;100.00;99621.13;4137737;28;20033;-77
2023/03/09 03:41:24;;;;;;;67.43;8.98;;;11.50;99.90;;;10.62;100.00;99622.59;4150944;28;20032;-77
2023/03/09 03:43:25;;;;;;;57.53;12.07;;;11.50;99.90;;;10.64;100.00;99625.84;4167174;28;20477;-77
2023/03/09 03:45:26;;;;;;;60.65;11.23;;;11.50;99.90;;;10.62;100.00;99624.41;4150585;28;20030;-77
2023/03/09 03:47:27;;;;;;;44.05;9.07;;;11.50;99.90;;;10.57;100.00;99632.88;4144881;28;21003;-78
2023/03/09 03:49:28;;;;;;;60.25;12.30;;;11.40;99.90;;;10.49;100.00;99635.59;4150384;28;20033;-78
2023/03/09 03:51:29;;;;;;;49.92;9.27;;;11.40;99.90;;;10.45;100.00;99629.06;4150751;28;20034;-78
2023/03/09 03:53:30;;;;;;;47.53;8.48;;;11.40;99.90;;;10.51;100.00;99637.03;4150540;28;20037;-78
2023/03/09 03:55:31;;;;;;;54.58;9.23;;;11.40;99.90;;;10.53;100.00;99636.88;4149858;28;20026;-78
2023/03/09 03:57:31;;;;;;;50.97;8.52;;;11.30;99.90;;;10.48;100.00;99628.69;4163431;28;20101;-77
2023/03/09 03:59:32;;;;;;;64.15;10.30;;;11.40;99.90;;;10.56;100.00;99636.50;4154403;28;20504;-77
2023/03/09 04:01:33;;;;;;;61.28;9.38;;;11.40;99.90;;;10.61;100.00;99643.84;4153424;28;20071;-77
2023/03/09 04:03:34;;;;;;;52.80;8.90;;;11.40;99.90;;;10.56;100.00;99639.13;4154721;28;20048;-77
2023/03/09 04:05:35;;;;;;;60.83;10.48;;;11.40;99.90;;;10.57;100.00;99647.88;4137339;28;20026;-77
2023/03/09 04:07:36;;;;;;;54.78;10.57;;;11.40;99.90;;;10.61;100.00;99644.69;4154875;28;20041;-77
2023/03/09 04:09:37;;;;;;;52.47;9.65;;;11.40;99.90;;;10.60;100.00;99652.78;4137252;28;20061;-77
2023/03/09 04:11:38;;;;;;;66.88;13.18;;;11.40;99.90;;;10.63;100.00;99645.34;4153504;28;20161;-77
2023/03/09 04:13:39;;;;;;;51.58;9.73;;;11.40;99.90;;;10.59;100.00;99649.31;4143585;28;20054;-77
2023/03/09 04:15:40;;;;;;;58.10;11.38;;;11.40;99.90;;;10.57;100.00;99645.22;4154526;28;20034;-77
2023/03/09 04:17:41;;;;;;;52.55;10.15;;;11.40;99.90;;;10.63;100.00;99642.69;4143084;28;20057;-77
2023/03/09 04:19:42;;;;;;;49.92;8.73;;;11.40;99.90;;;10.60;100.00;99637.78;4153175;28;20429;-77
2023/03/09 04:21:43;;;;;;;57.65;8.70;;;11.40;99.90;;;10.58;100.00;99634.50;4137060;28;20569;-77
2023/03/09 04:23:43;;;;;;;49.55;9.73;;;11.40;99.90;;;10.51;100.00;99629.13;4153265;28;20149;-77
2023/03/09 04:25:55;;;;;;;53.05;9.07;;;11.40;99.90;;;10.46;100.00;99638.59;4154483;28;20497;-77
2023/03/09 04:27:56;;;;;;;54.30;9.40;;;11.30;99.90;;;10.43;100.00;99645.03;4141307;28;20033;-77
2023/03/09 04:29:57;;;;;;;59.40;11.35;;;11.30;99.90;;;10.35;100.00;99636.41;4153057;28;20089;-77
2023/03/09 04:31:58;;;;;;;47.78;8.23;;;11.20;99.90;;;10.25;100.00;99634.03;4152922;28;20489;-77
2023/03/09 04:33:59;;;;;;;66.38;10.90;;;11.20;99.90;;;10.34;100.00;99647.94;4154431;28;20026;-77
2023/03/09 04:36:00;;;;;;;54.03;9.98;;;11.10;99.90;;;10.38;100.00;99639.50;4169499;28;20049;-77
2023/03/09 04:38:00;;;;;;;54.67;7.78;;;11.20;99.90;;;10.34;100.00;99642.66;4154215;28;20037;-77
2023/03/09 04:40:03;;;;;;;57.45;10.15;;;11.20;99.90;;;10.46;100.00;99649.13;4154299;28;20037;-77
2023/03/09 04:42:04;;;;;;;54.45;10.43;;;11.20;99.90;;;10.46;100.00;99649.13;4154112;28;20026;-77
2023/03/09 04:44:05;;;;;;;61.05;9.60;;;11.30;99.90;;;10.42;100.00;99648.66;4153139;28;20026;-78
2023/03/09 04:46:06;;;;;;;51.92;7.75;;;11.30;99.90;;;10.49;100.00;99662.78;4152937;28;20433;-78
2023/03/09 04:48:06;;;;;;;67.22;11.55;;;11.30;99.90;;;10.46;100.00;99654.41;4149551;28;20038;-77
2023/03/09 04:50:09;;;;;;;50.97;8.48;;;11.30;99.90;;;10.45;100.00;99650.94;4169186;28;20417;-78
2023/03/09 04:52:10;;;;;;;61.03;9.85;;;11.30;99.90;;;10.38;100.00;99655.31;4153902;28;20197;-78
2023/03/09 04:54:11;;;;;;;53.20;8.90;;;11.20;99.90;;;10.37;100.00;99664.22;4159110;28;20702;-77
2023/03/09 04:56:12;;;;;;;53.95;9.20;;;11.20;99.90;;;10.33;100.00;99657.69;4153043;28;20038;-77
2023/03/09 04:58:13;;;;;;;58.83;9.18;;;11.20;99.90;;;10.35;100.00;99652.22;4166688;28;20052;-77
2023/03/09 05:00:15;;;;;;;58.40;10.93;;;11.20;99.90;;;10.40;100.00;99653.31;4153641;28;20026;-77
2023/03/09 05:02:16;;;;;;;65.60;10.40;;;11.20;99.90;;;10.42;100.00;99658.41;4169270;28;20122;-78
2023/03/09 05:04:17;;;;;;;48.67;8.38;;;11.30;99.90;;;10.57;100.00;99669.78;4152618;28;20030;-77
2023/03/09 05:06:18;;;;;;;57.05;8.35;;;11.30;99.90;;;10.63;100.00;99674.34;4154085;28;20049;-77
2023/03/09 05:08:19;;;;;;;64.30;9.73;;;11.40;99.90;;;10.71;100.00;99676.88;4153301;28;20033;-77
2023/03/09 05:10:20;;;;;;;80.22;12.32;;;11.40;99.90;;;10.74;100.00;99676.50;4151565;28;20038;-77
2023/03/09 05:12:21;;;;;;;78.82;11.52;;;11.50;99.90;;;10.69;100.00;99668.34;4168960;28;20056;-78
2023/03/09 05:14:22;;;;;;;49.45;10.52;;;11.50;99.90;;;10.70;100.00;99658.56;4153548;28;20048;-78
2023/03/09 05:16:23;;;;;;;61.20;8.82;;;11.50;99.90;;;10.75;100.00;99656.22;4152195;28;20029;-77
2023/03/09 05:18:24;;;;;;;55.38;8.65;;;11.50;99.90;;;10.77;100.00;99667.41;4168678;28;20029;-77
2023/03/09 05:20:26;;;;;;;64.43;11.10;;;11.50;99.90;;;10.79;100.00;99660.13;4154030;28;20022;-77
2023/03/09 05:22:27;;;;;;;58.75;8.77;;;11.50;99.90;;;10.88;100.00;99662.47;4152442;28;20029;-77
2023/03/09 05:24:28;;;;;;;62.65;11.43;;;11.60;99.90;;;10.71;100.00;99644.41;4153423;28;20030;-77
2023/03/09 05:26:29;;;;;;;60.20;11.48;;;11.60;99.90;;;10.86;100.00;99659.22;4152347;28;20501;-77
2023/03/09 05:28:30;;;;;;;49.17;9.50;;;11.60;99.90;;;10.83;100.00;99662.22;4153266;28;20065;-77
2023/03/09 05:30:32;;;;;;;53.15;10.02;;;11.60;99.90;;;10.72;100.00;99649.47;4153257;28;20076;-77
2023/03/09 05:32:33;;;;;;;60.00;9.38;;;11.60;99.90;;;10.79;100.00;99652.19;4153206;28;20030;-77
2023/03/09 05:34:34;;;;;;;54.75;8.18;;;11.60;99.90;;;10.84;100.00;99660.41;4168821;28;20032;-77
2023/03/09 05:36:35;;;;;;;65.03;9.80;;;11.60;99.90;;;10.87;100.00;99660.03;4152246;28;20034;-77
2023/03/09 05:38:36;;;;;;;72.30;11.50;;;11.60;99.90;;;10.88;100.00;99640.56;4168460;28;20037;-78
2023/03/09 05:40:36;;;;;;;51.33;10.30;;;11.70;99.90;;;10.90;100.00;99659.66;4135784;28;20402;-77
2023/03/09 05:42:37;;;;;;;43.65;9.43;;;11.70;99.90;;;10.89;100.00;99669.41;4135865;28;20026;-78
2023/03/09 05:44:38;;;;;;;53.63;10.15;;;11.70;99.90;;;10.81;100.00;99645.75;4168294;28;20025;-77
2023/03/09 05:46:39;;;;;;;52.45;10.05;;;11.70;99.90;;;10.85;100.00;99654.94;4161337;28;20539;-77
2023/03/09 05:48:41;;;;;;;58.80;10.40;;;11.70;99.90;;;10.84;100.00;99640.09;4149555;28;20030;-77
2023/03/09 05:50:42;;;;;;;50.53;8.40;;;11.70;99.90;;;10.88;100.00;99644.00;4153000;28;20112;-77
2023/03/09 05:52:44;;;;;;;52.03;10.15;;;11.70;99.90;;;10.88;100.00;99641.38;4151816;28;20065;-77
2023/03/09 05:54:44;;;;;;;57.70;10.48;;;11.70;99.90;;;10.97;100.00;99642.09;4146105;28;20030;-77
2023/03/09 05:56:45;;;;;;;67.15;9.93;;;11.70;99.90;;;10.88;100.00;99641.38;4150844;28;20037;-77
2023/03/09 05:58:56;;;;;;;47.55;8.68;;;11.70;99.90;;;10.84;100.00;99644.56;4152934;28;20076;-77
2023/03/09 06:00:56;;;;;;;58.35;10.98;;;11.60;99.90;;;10.89;100.00;99643.00;4151749;28;20026;-77
2023/03/09 06:02:57;;;;;;;53.00;9.65;;;11.70;99.90;;;10.88;100.00;99644.00;4168359;28;20022;-77
2023/03/09 06:04:58;;;;;;;53.35;8.82;;;11.60;99.90;;;10.76;100.00;99628.81;4151644;28;20030;-77
2023/03/09 06:06:59;;;;;;;46.17;9.00;;;11.60;99.90;;;10.69;100.00;99626.13;4149093;28;20109;-78
2023/03/09 06:09:00;;;;;;;51.45;9.57;;;11.60;99.90;;;10.74;100.00;99629.03;4142179;28;20089;-78
2023/03/09 06:11:01;;;;;;;59.78;10.10;;;11.60;99.90;;;10.77;100.00;99644.50;4145102;28;20022;-78
2023/03/09 06:13:02;;;;;;;61.95;11.00;;;11.60;99.90;;;10.72;100.00;99633.66;4149512;28;20048;-78
2023/03/09 06:15:04;;;;;;;59.58;11.25;;;11.50;99.90;;;10.69;100.00;99631.41;4151273;28;20108;-78
2023/03/09 06:17:05;;;;;;;56.95;9.05;;;11.50;99.90;;;10.65;100.00;99630.13;4135019;28;20030;-78
2023/03/09 06:19:06;;;;;;;52.78;9.82;;;11.40;99.90;;;10.48;100.00;99634.75;4142080;28;20034;-77
2023/03/09 06:21:08;;;;;;;50.30;8.88;;;11.40;99.90;;;10.45;100.00;99640.41;4147840;28;20049;-78
2023/03/09 06:23:09;;;;;;;64.90;9.40;;;11.20;99.90;;;10.42;100.00;99632.84;4152617;28;20499;-77
2023/03/09 06:25:10;;;;;;;53.90;9.43;;;11.30;99.90;;;10.32;100.00;99628.88;4151569;28;20030;-78
2023/03/09 06:27:11;;;;;;;51.58;8.05;;;11.20;99.90;;;10.35;100.00;99644.31;4147789;28;20081;-78
2023/03/09 06:29:12;;;;;;;53.90;10.75;;;11.20;99.90;;;10.33;100.00;99646.31;4164001;28;20477;-78
2023/03/09 06:31:15;;;;;;;49.70;11.27;;;11.20;99.90;;;10.27;100.00;99634.69;4149805;28;20053;-77
2023/03/09 06:33:16;;;;;;;61.25;10.07;;;11.20;99.90;;;10.42;100.00;99655.78;4151378;28;20029;-77
2023/03/09 06:35:17;;;;;;;47.80;9.15;;;11.20;99.90;;;10.42;100.00;99655.78;4144401;28;20030;-78
2023/03/09 06:37:18;;;;;;;61.58;9.95;;;11.20;99.90;;;10.40;100.00;99644.59;4126366;28;20034;-78
2023/03/09 06:39:19;;;;;;;50.33;10.35;;;11.20;99.90;;;10.42;100.00;99650.50;4134187;28;20030;-78
2023/03/09 06:41:29;;;;;;;52.65;10.52;;;11.20;99.90;;;10.46;100.00;99652.59;4148031;28;20053;-78
2023/03/09 06:43:30;;;;;;;50.30;9.23;;;11.30;99.90;;;10.45;100.00;99644.88;4151178;28;20025;-78
2023/03/09 06:45:32;;;;;;;55.00;9.65;;;11.30;99.90;;;10.48;100.00;99655.06;4167556;28;20022;-78
2023/03/09 06:47:33;;;;;;;75.78;10.77;;;11.30;99.90;;;10.55;100.00;99645.41;4152019;28;20030;-78
2023/03/09 06:49:33;;;;;;;60.25;9.85;;;11.30;99.90;;;10.53;100.00;99652.69;4152459;28;20034;-78
2023/03/09 06:51:34;;;;;;;67.68;10.45;;;11.30;99.90;;;10.54;100.00;99654.34;4135103;28;20426;-78
2023/03/09 06:53:35;;;;;;;49.50;8.60;;;11.30;99.90;;;10.53;100.00;99655.31;4151049;28;20076;-78
2023/03/09 06:55:37;;;;;;;61.78;9.95;;;11.30;99.90;;;10.61;100.00;99657.03;4150834;28;20030;-78
2023/03/09 06:57:38;;;;;;;60.60;10.35;;;11.40;99.90;;;10.53;100.00;99647.41;4150937;28;20461;-77
2023/03/09 06:59:39;;;;;;;54.72;10.35;;;11.40;99.90;;;10.60;100.00;99643.06;4167060;28;20029;-78
2023/03/09 07:01:40;;;;;;;53.92;8.98;;;11.50;99.90;;;10.65;100.00;99659.13;4151105;28;20030;-78
2023/03/09 07:03:41;;;;;;;62.40;9.85;;;11.50;99.90;;;10.73;100.00;99666.13;4151952;28;20062;-78
2023/03/09 07:05:42;;;;;;;53.05;10.18;;;11.50;99.90;;;10.74;100.00;99655.41;4152337;28;20497;-79
2023/03/09 07:07:43;;;;;;;45.20;8.50;;;11.60;99.90;;;10.87;100.00;99660.03;4151092;28;20072;-78
2023/03/09 07:09:44;;;;;;;58.40;9.38;;;11.60;99.90;;;10.95;100.00;99654.66;4167402;28;20025;-78
2023/03/09 07:11:46;;;;;;;63.70;12.00;;;11.70;99.90;;;10.89;100.00;99629.81;4150844;28;20558;-78
2023/03/09 07:13:47;;;;;;;53.10;8.75;;;11.80;99.90;;;10.96;100.00;99632.56;4150771;28;20117;-78
2023/03/09 07:15:49;;;;;;;57.63;9.70;;;11.80;99.90;;;11.08;100.00;99650.34;4144720;28;20022;-77
2023/03/09 07:17:49;;;;;;;63.97;10.15;;;11.80;99.90;;;11.06;100.00;99633.06;4152031;28;20447;-78
2023/03/09 07:19:51;;;;;;;50.58;8.75;;;11.90;99.90;;;11.04;100.00;99629.78;4134735;28;20030;-78
2023/03/09 07:21:53;;;;;;;61.58;12.15;;;11.90;99.90;;;11.10;100.00;99635.16;4150982;28;20018;-78
2023/03/09 07:23:54;;;;;;;45.35;8.55;;;11.90;99.90;;;11.23;100.00;99628.38;4144646;28;20117;-78
2023/03/09 07:26:03;;;;;;;61.75;10.18;;;12.00;99.90;;;11.31;100.00;99641.44;4134049;28;20015;-78
2023/03/09 07:28:07;;;;;;;55.50;8.75;;;12.00;99.90;;;11.22;100.00;99613.53;4138034;28;20038;-78
2023/03/09 07:30:09;;;;;;;46.75;8.10;;;12.10;99.90;;;11.29;100.00;99617.88;4151675;28;20029;-78
2023/03/09 07:32:10;;;;;;;54.30;10.00;;;12.10;99.90;;;11.31;100.00;99613.22;4150516;28;20060;-77
2023/03/09 07:34:11;;;;;;;52.00;8.70;;;12.10;99.90;;;11.31;100.00;99609.78;4136607;28;20477;-78
2023/03/09 07:36:11;;;;;;;52.53;8.15;;;12.20;99.90;;;11.30;100.00;99605.50;4153750;28;20124;-77
2023/03/09 07:38:12;;;;;;;48.38;9.25;;;12.20;99.90;;;11.36;100.00;99612.66;4145004;28;20029;-78
2023/03/09 07:40:13;;;;;;;48.15;9.20;;;12.20;99.90;;;11.38;100.00;99608.03;4164484;28;20021;-78
2023/03/09 07:42:14;;;;;;;91.72;61.97;;;12.20;99.90;;;11.43;100.00;99603.81;4137968;28;20117;-78
2023/03/09 07:44:15;;;;;;;56.60;10.65;;;12.20;99.90;;;11.38;100.00;99582.41;4155226;28;20045;-78
2023/03/09 07:46:17;;;;;;;63.17;12.88;;;12.30;99.90;;;11.48;100.00;99598.75;4154042;28;20148;-78
2023/03/09 07:48:19;;;;;;;51.47;6.97;;;12.30;99.90;;;11.43;100.00;99592.41;4148466;28;20034;-78
2023/03/09 07:50:20;;;;;;;46.33;9.65;;;12.30;99.90;;;11.41;100.00;99579.41;4153862;28;20052;-78
2023/03/09 07:52:21;;;;;;;52.80;8.55;;;12.30;99.90;;;11.41;100.00;99584.66;4153972;28;20029;-78
2023/03/09 07:54:22;;;;;;;53.95;10.40;;;12.30;99.90;;;11.47;100.00;99594.47;4143665;28;20030;-78
2023/03/09 07:56:23;;;;;;;53.00;9.23;;;12.30;99.90;;;11.45;100.00;99590.41;4154866;28;20029;-77
2023/03/09 07:58:25;;;;;;;55.83;10.82;;;12.30;99.90;;;11.44;100.00;99594.06;4155017;28;20033;-78
2023/03/09 08:00:27;;;;;;;49.20;10.43;;;12.30;99.90;;;11.44;100.00;99594.06;4154536;28;20021;-78
2023/03/09 08:02:29;;;;;;;59.90;12.23;;;12.30;99.90;;;11.51;100.00;99594.94;4153721;28;20026;-78
2023/03/09 08:04:30;;;;;;;55.08;10.57;;;12.30;99.90;;;11.52;100.00;99592.09;4153838;28;20033;-78
2023/03/09 08:06:31;;;;;;;46.13;10.05;;;12.30;99.90;;;11.57;100.00;99594.16;4154672;28;20429;-78
2023/03/09 08:08:32;;;;;;;44.75;9.48;;;12.40;99.90;;;11.55;100.00;99585.63;4153438;28;20037;-78
2023/03/09 08:10:34;;;;;;;40.88;7.65;;;12.40;99.90;;;11.65;100.00;99588.72;4137525;28;20046;-78
2023/03/09 08:12:35;;;;;;;63.97;12.63;;;12.40;99.90;;;11.73;100.00;99598.41;4153494;28;20053;-78
2023/03/09 08:14:36;;;;;;;47.58;10.35;;;12.50;99.90;;;11.78;100.00;99577.50;4154597;28;20096;-78
2023/03/09 08:16:38;;;;;;;51.92;9.45;;;12.60;99.90;;;11.88;100.00;99592.03;4153197;28;20053;-78
2023/03/09 08:18:38;;;;;;;56.35;10.65;;;12.70;99.90;;;11.93;100.00;99594.91;4153535;28;20026;-78
2023/03/09 08:20:40;;;;;;;46.80;10.35;;;12.70;99.90;;;12.02;100.00;99585.81;4154644;28;20026;-78
2023/03/09 08:22:41;;;;;;;46.22;8.32;;;12.80;99.90;;;12.08;100.00;99586.88;4153368;28;20014;-78